Terminal Aerodrome Forecast
Issued by NWS

Home | Current Version | Previous Version | Text Only | Print | Product List | Glossary On
Versions: 1 2 3 4 5 6 7 8 9 10 11 12
000
FTUS45 KRIW 210529
TAFLND
TAF
KLND 210529Z 2106/2206 VRB05KT 6SM BR SCT100
      TEMPO 2110/2114 2SM BR SCT005
     FM212100 VRB03KT P6SM SCT050 BKN070
     FM220200 25006KT P6SM SCT090 BKN150=

USA.gov is the U.S. government's official web portal to all federal, state and local government web resources and services.